sensor_id;sensor_type;location;lat;lon;timestamp;P1;durP1;ratioP1;P2;durP2;ratioP2
5519;SDS011;2782;52.362;10.012;2023-08-30T00:00:39;8.90;;;2.97;;
5519;SDS011;2782;52.362;10.012;2023-08-30T00:01:40;9.10;;;3.33;;
5519;SDS011;2782;52.362;10.012;2023-08-30T00:02:42;5.68;;;2.60;;
5519;SDS011;2782;52.362;10.012;2023-08-30T00:03:43;9.73;;;3.40;;
5519;SDS011;2782;52.362;10.012;2023-08-30T00:04:46;9.65;;;2.78;;
5519;SDS011;2782;52.362;10.012;2023-08-30T00:05:48;8.73;;;3.40;;
5519;SDS011;2782;52.362;10.012;2023-08-30T00:06:50;7.50;;;2.30;;
5519;SDS011;2782;52.362;10.012;2023-08-30T00:07:51;9.33;;;3.03;;
5519;SDS011;2782;52.362;10.012;2023-08-30T00:08:52;9.27;;;1.90;;
5519;SDS011;2782;52.362;10.012;2023-08-30T00:09:53;11.30;;;2.80;;
5519;SDS011;2782;52.362;10.012;2023-08-30T00:10:54;8.03;;;2.60;;
5519;SDS011;2782;52.362;10.012;2023-08-30T00:11:58;7.40;;;2.30;;
5519;SDS011;2782;52.362;10.012;2023-08-30T00:13:00;13.60;;;2.97;;
5519;SDS011;2782;52.362;10.012;2023-08-30T00:14:05;6.25;;;2.40;;
5519;SDS011;2782;52.362;10.012;2023-08-30T00:15:07;7.70;;;2.72;;
5519;SDS011;2782;52.362;10.012;2023-08-30T00:16:09;7.38;;;2.33;;
5519;SDS011;2782;52.362;10.012;2023-08-30T00:17:13;5.15;;;2.25;;
5519;SDS011;2782;52.362;10.012;2023-08-30T00:18:14;7.05;;;2.50;;
5519;SDS011;2782;52.362;10.012;2023-08-30T00:19:14;12.13;;;2.37;;
5519;SDS011;2782;52.362;10.012;2023-08-30T00:20:18;7.10;;;2.58;;
5519;SDS011;2782;52.362;10.012;2023-08-30T00:21:19;6.28;;;2.65;;
5519;SDS011;2782;52.362;10.012;2023-08-30T00:22:21;10.93;;;3.15;;
5519;SDS011;2782;52.362;10.012;2023-08-30T00:23:22;6.47;;;2.50;;
5519;SDS011;2782;52.362;10.012;2023-08-30T00:24:24;4.47;;;2.20;;
5519;SDS011;2782;52.362;10.012;2023-08-30T00:25:24;5.40;;;2.30;;
5519;SDS011;2782;52.362;10.012;2023-08-30T00:26:26;5.00;;;2.17;;
5519;SDS011;2782;52.362;10.012;2023-08-30T00:27:27;6.75;;;2.28;;
5519;SDS011;2782;52.362;10.012;2023-08-30T00:28:29;8.18;;;2.90;;
5519;SDS011;2782;52.362;10.012;2023-08-30T00:29:30;5.50;;;2.60;;
5519;SDS011;2782;52.362;10.012;2023-08-30T00:30:31;6.00;;;2.50;;
5519;SDS011;2782;52.362;10.012;2023-08-30T00:31:32;6.25;;;2.83;;
5519;SDS011;2782;52.362;10.012;2023-08-30T00:32:33;4.80;;;1.87;;
5519;SDS011;2782;52.362;10.012;2023-08-30T00:33:35;6.95;;;2.20;;
5519;SDS011;2782;52.362;10.012;2023-08-30T00:34:35;5.07;;;2.57;;
5519;SDS011;2782;52.362;10.012;2023-08-30T00:35:38;5.00;;;2.50;;
5519;SDS011;2782;52.362;10.012;2023-08-30T00:36:39;6.25;;;2.55;;
5519;SDS011;2782;52.362;10.012;2023-08-30T00:37:41;8.35;;;2.70;;
5519;SDS011;2782;52.362;10.012;2023-08-30T00:38:42;4.50;;;2.37;;
5519;SDS011;2782;52.362;10.012;2023-08-30T00:39:43;11.07;;;2.10;;
5519;SDS011;2782;52.362;10.012;2023-08-30T00:40:44;7.57;;;2.85;;
5519;SDS011;2782;52.362;10.012;2023-08-30T00:41:46;4.45;;;1.92;;
5519;SDS011;2782;52.362;10.012;2023-08-30T00:42:47;4.70;;;2.13;;
5519;SDS011;2782;52.362;10.012;2023-08-30T00:43:49;6.57;;;2.40;;
5519;SDS011;2782;52.362;10.012;2023-08-30T00:44:49;7.83;;;2.57;;
5519;SDS011;2782;52.362;10.012;2023-08-30T00:45:51;6.97;;;2.67;;
5519;SDS011;2782;52.362;10.012;2023-08-30T00:46:52;8.33;;;1.70;;
5519;SDS011;2782;52.362;10.012;2023-08-30T00:47:53;5.93;;;2.38;;
5519;SDS011;2782;52.362;10.012;2023-08-30T00:48:54;5.53;;;2.30;;
5519;SDS011;2782;52.362;10.012;2023-08-30T00:49:57;6.20;;;2.47;;
5519;SDS011;2782;52.362;10.012;2023-08-30T00:50:59;8.10;;;2.40;;
5519;SDS011;2782;52.362;10.012;2023-08-30T00:52:01;6.03;;;2.45;;
5519;SDS011;2782;52.362;10.012;2023-08-30T00:53:03;11.75;;;2.40;;
5519;SDS011;2782;52.362;10.012;2023-08-30T00:54:06;9.00;;;2.38;;
5519;SDS011;2782;52.362;10.012;2023-08-30T00:55:08;7.35;;;3.00;;
5519;SDS011;2782;52.362;10.012;2023-08-30T00:56:09;3.65;;;1.83;;
5519;SDS011;2782;52.362;10.012;2023-08-30T00:57:11;4.93;;;1.95;;
5519;SDS011;2782;52.362;10.012;2023-08-30T00:58:12;5.60;;;2.10;;
5519;SDS011;2782;52.362;10.012;2023-08-30T00:59:14;5.88;;;2.28;;
5519;SDS011;2782;52.362;10.012;2023-08-30T01:00:15;6.70;;;2.87;;
5519;SDS011;2782;52.362;10.012;2023-08-30T01:01:17;2.83;;;1.67;;
5519;SDS011;2782;52.362;10.012;2023-08-30T01:02:18;6.10;;;1.98;;
5519;SDS011;2782;52.362;10.012;2023-08-30T01:03:19;7.10;;;2.53;;
5519;SDS011;2782;52.362;10.012;2023-08-30T01:04:21;4.22;;;2.13;;
5519;SDS011;2782;52.362;10.012;2023-08-30T01:05:23;5.05;;;2.40;;
5519;SDS011;2782;52.362;10.012;2023-08-30T01:06:26;3.90;;;2.08;;
5519;SDS011;2782;52.362;10.012;2023-08-30T01:07:27;4.57;;;1.65;;
5519;SDS011;2782;52.362;10.012;2023-08-30T01:08:29;4.22;;;1.70;;
5519;SDS011;2782;52.362;10.012;2023-08-30T01:09:29;6.90;;;2.30;;
5519;SDS011;2782;52.362;10.012;2023-08-30T01:10:35;6.72;;;2.20;;
5519;SDS011;2782;52.362;10.012;2023-08-30T01:11:46;3.35;;;1.85;;
5519;SDS011;2782;52.362;10.012;2023-08-30T01:12:54;4.30;;;2.10;;
5519;SDS011;2782;52.362;10.012;2023-08-30T01:14:06;7.35;;;2.00;;
5519;SDS011;2782;52.362;10.012;2023-08-30T01:15:10;6.10;;;2.10;;
5519;SDS011;2782;52.362;10.012;2023-08-30T01:16:14;5.50;;;1.75;;
5519;SDS011;2782;52.362;10.012;2023-08-30T01:17:17;3.90;;;1.95;;
5519;SDS011;2782;52.362;10.012;2023-08-30T01:18:18;4.32;;;2.15;;
5519;SDS011;2782;52.362;10.012;2023-08-30T01:19:26;4.70;;;2.17;;
5519;SDS011;2782;52.362;10.012;2023-08-30T01:20:37;4.85;;;1.63;;
5519;SDS011;2782;52.362;10.012;2023-08-30T01:21:45;4.35;;;1.45;;
5519;SDS011;2782;52.362;10.012;2023-08-30T01:22:53;4.18;;;1.77;;
5519;SDS011;2782;52.362;10.012;2023-08-30T01:24:00;5.85;;;2.03;;
5519;SDS011;2782;52.362;10.012;2023-08-30T01:25:06;4.35;;;1.88;;
5519;SDS011;2782;52.362;10.012;2023-08-30T01:26:20;4.97;;;1.80;;
5519;SDS011;2782;52.362;10.012;2023-08-30T01:27:28;7.88;;;2.00;;
5519;SDS011;2782;52.362;10.012;2023-08-30T01:28:32;5.68;;;2.13;;
5519;SDS011;2782;52.362;10.012;2023-08-30T01:29:33;5.97;;;2.15;;
5519;SDS011;2782;52.362;10.012;2023-08-30T01:30:39;5.07;;;2.10;;
5519;SDS011;2782;52.362;10.012;2023-08-30T01:31:41;8.20;;;1.90;;
5519;SDS011;2782;52.362;10.012;2023-08-30T01:32:45;7.07;;;2.08;;
5519;SDS011;2782;52.362;10.012;2023-08-30T01:33:46;3.55;;;1.67;;
5519;SDS011;2782;52.362;10.012;2023-08-30T01:34:48;4.00;;;2.00;;
5519;SDS011;2782;52.362;10.012;2023-08-30T01:35:50;2.15;;;1.40;;
5519;SDS011;2782;52.362;10.012;2023-08-30T01:36:52;6.88;;;1.92;;
5519;SDS011;2782;52.362;10.012;2023-08-30T01:37:53;5.10;;;1.75;;
5519;SDS011;2782;52.362;10.012;2023-08-30T01:38:54;3.70;;;1.57;;
5519;SDS011;2782;52.362;10.012;2023-08-30T01:39:58;5.05;;;2.00;;
5519;SDS011;2782;52.362;10.012;2023-08-30T01:41:00;5.50;;;2.03;;
5519;SDS011;2782;52.362;10.012;2023-08-30T01:42:03;4.20;;;1.80;;
5519;SDS011;2782;52.362;10.012;2023-08-30T01:43:06;5.68;;;2.33;;
5519;SDS011;2782;52.362;10.012;2023-08-30T01:44:08;4.70;;;1.73;;
5519;SDS011;2782;52.362;10.012;2023-08-30T01:45:11;7.28;;;2.47;;
5519;SDS011;2782;52.362;10.012;2023-08-30T01:46:13;4.88;;;1.85;;
5519;SDS011;2782;52.362;10.012;2023-08-30T01:47:16;3.40;;;1.40;;
5519;SDS011;2782;52.362;10.012;2023-08-30T01:48:19;3.63;;;1.95;;
5519;SDS011;2782;52.362;10.012;2023-08-30T01:49:21;4.47;;;1.80;;
5519;SDS011;2782;52.362;10.012;2023-08-30T01:50:22;5.57;;;1.83;;
5519;SDS011;2782;52.362;10.012;2023-08-30T01:51:25;5.13;;;1.80;;
5519;SDS011;2782;52.362;10.012;2023-08-30T01:52:27;9.40;;;1.67;;
5519;SDS011;2782;52.362;10.012;2023-08-30T01:53:29;3.63;;;1.75;;
5519;SDS011;2782;52.362;10.012;2023-08-30T01:54:31;4.63;;;1.50;;
5519;SDS011;2782;52.362;10.012;2023-08-30T01:55:34;4.07;;;1.80;;
5519;SDS011;2782;52.362;10.012;2023-08-30T01:56:36;3.72;;;1.75;;
5519;SDS011;2782;52.362;10.012;2023-08-30T01:57:37;4.53;;;1.88;;
5519;SDS011;2782;52.362;10.012;2023-08-30T01:58:39;3.10;;;1.60;;
5519;SDS011;2782;52.362;10.012;2023-08-30T01:59:41;4.97;;;2.05;;
5519;SDS011;2782;52.362;10.012;2023-08-30T02:00:42;6.53;;;2.60;;
5519;SDS011;2782;52.362;10.012;2023-08-30T02:01:43;4.28;;;1.95;;
5519;SDS011;2782;52.362;10.012;2023-08-30T02:02:44;3.97;;;2.10;;
5519;SDS011;2782;52.362;10.012;2023-08-30T02:03:46;3.38;;;1.50;;
5519;SDS011;2782;52.362;10.012;2023-08-30T02:04:47;2.70;;;1.60;;
5519;SDS011;2782;52.362;10.012;2023-08-30T02:05:50;3.37;;;1.40;;
5519;SDS011;2782;52.362;10.012;2023-08-30T02:07:02;4.90;;;1.75;;
5519;SDS011;2782;52.362;10.012;2023-08-30T02:08:05;3.55;;;1.80;;
5519;SDS011;2782;52.362;10.012;2023-08-30T02:09:14;3.03;;;1.42;;
5519;SDS011;2782;52.362;10.012;2023-08-30T02:10:21;2.72;;;1.55;;
5519;SDS011;2782;52.362;10.012;2023-08-30T02:11:26;3.00;;;1.73;;
5519;SDS011;2782;52.362;10.012;2023-08-30T02:12:28;4.47;;;2.10;;
5519;SDS011;2782;52.362;10.012;2023-08-30T02:13:36;4.10;;;1.98;;
5519;SDS011;2782;52.362;10.012;2023-08-30T02:14:39;2.03;;;1.20;;
5519;SDS011;2782;52.362;10.012;2023-08-30T02:15:45;5.15;;;1.60;;
5519;SDS011;2782;52.362;10.012;2023-08-30T02:16:47;3.40;;;1.30;;
5519;SDS011;2782;52.362;10.012;2023-08-30T02:17:49;4.72;;;2.00;;
5519;SDS011;2782;52.362;10.012;2023-08-30T02:18:50;6.28;;;1.95;;
5519;SDS011;2782;52.362;10.012;2023-08-30T02:19:52;3.42;;;1.30;;
5519;SDS011;2782;52.362;10.012;2023-08-30T02:20:53;4.78;;;1.85;;
5519;SDS011;2782;52.362;10.012;2023-08-30T02:21:56;3.35;;;1.75;;
5519;SDS011;2782;52.362;10.012;2023-08-30T02:22:58;2.10;;;1.13;;
5519;SDS011;2782;52.362;10.012;2023-08-30T02:23:59;5.05;;;1.70;;
5519;SDS011;2782;52.362;10.012;2023-08-30T02:25:00;4.20;;;1.40;;
5519;SDS011;2782;52.362;10.012;2023-08-30T02:26:04;3.08;;;1.42;;
5519;SDS011;2782;52.362;10.012;2023-08-30T02:27:06;3.17;;;1.58;;
5519;SDS011;2782;52.362;10.012;2023-08-30T02:28:06;2.90;;;1.50;;
5519;SDS011;2782;52.362;10.012;2023-08-30T02:29:08;4.07;;;1.88;;
5519;SDS011;2782;52.362;10.012;2023-08-30T02:30:11;2.50;;;1.52;;
5519;SDS011;2782;52.362;10.012;2023-08-30T02:31:13;3.90;;;1.40;;
5519;SDS011;2782;52.362;10.012;2023-08-30T02:32:13;2.33;;;1.30;;
5519;SDS011;2782;52.362;10.012;2023-08-30T02:33:20;2.15;;;1.42;;
5519;SDS011;2782;52.362;10.012;2023-08-30T02:34:21;2.40;;;1.20;;
5519;SDS011;2782;52.362;10.012;2023-08-30T02:35:23;2.15;;;1.33;;
5519;SDS011;2782;52.362;10.012;2023-08-30T02:36:23;3.57;;;1.80;;
5519;SDS011;2782;52.362;10.012;2023-08-30T02:37:25;2.92;;;1.70;;
5519;SDS011;2782;52.362;10.012;2023-08-30T02:38:26;3.20;;;1.43;;
5519;SDS011;2782;52.362;10.012;2023-08-30T02:39:27;2.78;;;1.40;;
5519;SDS011;2782;52.362;10.012;2023-08-30T02:40:28;3.40;;;1.50;;
5519;SDS011;2782;52.362;10.012;2023-08-30T02:41:29;7.20;;;1.40;;
5519;SDS011;2782;52.362;10.012;2023-08-30T02:42:30;1.63;;;1.00;;
5519;SDS011;2782;52.362;10.012;2023-08-30T02:43:33;3.35;;;1.48;;
5519;SDS011;2782;52.362;10.012;2023-08-30T02:44:34;3.67;;;1.73;;
5519;SDS011;2782;52.362;10.012;2023-08-30T02:45:37;3.42;;;1.35;;
5519;SDS011;2782;52.362;10.012;2023-08-30T02:46:38;6.30;;;1.33;;
5519;SDS011;2782;52.362;10.012;2023-08-30T02:47:40;5.05;;;1.30;;
5519;SDS011;2782;52.362;10.012;2023-08-30T02:48:40;3.17;;;1.37;;
5519;SDS011;2782;52.362;10.012;2023-08-30T02:49:42;1.63;;;0.93;;
5519;SDS011;2782;52.362;10.012;2023-08-30T02:50:43;4.70;;;2.10;;
5519;SDS011;2782;52.362;10.012;2023-08-30T02:51:44;2.45;;;1.38;;
5519;SDS011;2782;52.362;10.012;2023-08-30T02:52:45;3.50;;;1.73;;
5519;SDS011;2782;52.362;10.012;2023-08-30T02:53:46;4.30;;;1.58;;
5519;SDS011;2782;52.362;10.012;2023-08-30T02:54:47;2.07;;;1.03;;
5519;SDS011;2782;52.362;10.012;2023-08-30T02:55:49;3.05;;;1.00;;
5519;SDS011;2782;52.362;10.012;2023-08-30T02:56:49;3.27;;;1.60;;
5519;SDS011;2782;52.362;10.012;2023-08-30T02:57:51;4.57;;;1.35;;
5519;SDS011;2782;52.362;10.012;2023-08-30T02:58:52;4.07;;;1.60;;
5519;SDS011;2782;52.362;10.012;2023-08-30T02:59:53;4.68;;;1.40;;
5519;SDS011;2782;52.362;10.012;2023-08-30T03:00:55;2.80;;;1.17;;
5519;SDS011;2782;52.362;10.012;2023-08-30T03:01:57;2.50;;;1.05;;
5519;SDS011;2782;52.362;10.012;2023-08-30T03:02:58;3.13;;;1.23;;
5519;SDS011;2782;52.362;10.012;2023-08-30T03:03:59;1.30;;;0.90;;
5519;SDS011;2782;52.362;10.012;2023-08-30T03:05:00;1.60;;;1.10;;
5519;SDS011;2782;52.362;10.012;2023-08-30T03:06:04;3.80;;;1.45;;
5519;SDS011;2782;52.362;10.012;2023-08-30T03:07:05;2.30;;;1.37;;
5519;SDS011;2782;52.362;10.012;2023-08-30T03:08:06;1.90;;;0.90;;
5519;SDS011;2782;52.362;10.012;2023-08-30T03:09:07;1.53;;;0.70;;
5519;SDS011;2782;52.362;10.012;2023-08-30T03:10:09;1.42;;;1.10;;
5519;SDS011;2782;52.362;10.012;2023-08-30T03:11:12;3.25;;;1.17;;
5519;SDS011;2782;52.362;10.012;2023-08-30T03:12:14;4.60;;;1.17;;
5519;SDS011;2782;52.362;10.012;2023-08-30T03:13:15;7.60;;;1.30;;
5519;SDS011;2782;52.362;10.012;2023-08-30T03:14:17;3.15;;;1.55;;
5519;SDS011;2782;52.362;10.012;2023-08-30T03:15:17;6.63;;;1.23;;
5519;SDS011;2782;52.362;10.012;2023-08-30T03:16:20;2.65;;;1.08;;
5519;SDS011;2782;52.362;10.012;2023-08-30T03:17:21;2.80;;;1.27;;
5519;SDS011;2782;52.362;10.012;2023-08-30T03:18:24;3.60;;;1.67;;
5519;SDS011;2782;52.362;10.012;2023-08-30T03:19:25;2.00;;;1.23;;
5519;SDS011;2782;52.362;10.012;2023-08-30T03:20:26;2.63;;;1.10;;
5519;SDS011;2782;52.362;10.012;2023-08-30T03:21:28;2.85;;;1.20;;
5519;SDS011;2782;52.362;10.012;2023-08-30T03:22:30;2.45;;;1.25;;
5519;SDS011;2782;52.362;10.012;2023-08-30T03:23:31;2.45;;;1.08;;
5519;SDS011;2782;52.362;10.012;2023-08-30T03:24:33;3.35;;;1.50;;
5519;SDS011;2782;52.362;10.012;2023-08-30T03:25:35;1.55;;;1.10;;
5519;SDS011;2782;52.362;10.012;2023-08-30T03:26:36;2.88;;;1.40;;
5519;SDS011;2782;52.362;10.012;2023-08-30T03:27:37;1.37;;;0.97;;
5519;SDS011;2782;52.362;10.012;2023-08-30T03:28:39;2.58;;;1.10;;
5519;SDS011;2782;52.362;10.012;2023-08-30T03:29:40;2.38;;;0.95;;
5519;SDS011;2782;52.362;10.012;2023-08-30T03:30:42;2.50;;;1.25;;
5519;SDS011;2782;52.362;10.012;2023-08-30T03:31:44;2.90;;;0.90;;
5519;SDS011;2782;52.362;10.012;2023-08-30T03:32:45;2.88;;;1.00;;
5519;SDS011;2782;52.362;10.012;2023-08-30T03:33:46;2.97;;;1.53;;
5519;SDS011;2782;52.362;10.012;2023-08-30T03:34:49;1.88;;;1.00;;
5519;SDS011;2782;52.362;10.012;2023-08-30T03:35:50;3.67;;;1.08;;
5519;SDS011;2782;52.362;10.012;2023-08-30T03:36:52;3.42;;;1.25;;
5519;SDS011;2782;52.362;10.012;2023-08-30T03:37:54;2.60;;;1.42;;
5519;SDS011;2782;52.362;10.012;2023-08-30T03:38:55;2.65;;;1.27;;
5519;SDS011;2782;52.362;10.012;2023-08-30T03:39:56;1.57;;;0.90;;
5519;SDS011;2782;52.362;10.012;2023-08-30T03:40:58;3.03;;;1.15;;
5519;SDS011;2782;52.362;10.012;2023-08-30T03:41:59;2.20;;;1.10;;
5519;SDS011;2782;52.362;10.012;2023-08-30T03:43:00;2.10;;;1.60;;
5519;SDS011;2782;52.362;10.012;2023-08-30T03:44:01;2.30;;;1.30;;
5519;SDS011;2782;52.362;10.012;2023-08-30T03:45:03;2.72;;;0.95;;
5519;SDS011;2782;52.362;10.012;2023-08-30T03:46:05;1.75;;;1.20;;
5519;SDS011;2782;52.362;10.012;2023-08-30T03:47:08;3.85;;;2.10;;
5519;SDS011;2782;52.362;10.012;2023-08-30T03:48:09;3.28;;;1.58;;
5519;SDS011;2782;52.362;10.012;2023-08-30T03:49:10;3.10;;;1.33;;
5519;SDS011;2782;52.362;10.012;2023-08-30T03:50:11;2.87;;;1.47;;
5519;SDS011;2782;52.362;10.012;2023-08-30T03:51:13;3.78;;;1.00;;
5519;SDS011;2782;52.362;10.012;2023-08-30T03:52:13;1.17;;;1.03;;
5519;SDS011;2782;52.362;10.012;2023-08-30T03:53:15;1.35;;;0.90;;
5519;SDS011;2782;52.362;10.012;2023-08-30T03:54:16;2.20;;;1.40;;
5519;SDS011;2782;52.362;10.012;2023-08-30T03:55:17;1.27;;;0.95;;
5519;SDS011;2782;52.362;10.012;2023-08-30T03:56:18;1.50;;;0.83;;
5519;SDS011;2782;52.362;10.012;2023-08-30T03:57:19;1.80;;;1.00;;
5519;SDS011;2782;52.362;10.012;2023-08-30T03:58:21;4.38;;;1.70;;
5519;SDS011;2782;52.362;10.012;2023-08-30T03:59:21;2.93;;;1.00;;
5519;SDS011;2782;52.362;10.012;2023-08-30T04:00:25;2.83;;;1.30;;
5519;SDS011;2782;52.362;10.012;2023-08-30T04:01:26;1.40;;;0.90;;
5519;SDS011;2782;52.362;10.012;2023-08-30T04:02:29;1.95;;;1.20;;
5519;SDS011;2782;52.362;10.012;2023-08-30T04:03:29;1.80;;;0.93;;
5519;SDS011;2782;52.362;10.012;2023-08-30T04:04:30;2.57;;;1.27;;
5519;SDS011;2782;52.362;10.012;2023-08-30T04:05:32;1.77;;;1.00;;
5519;SDS011;2782;52.362;10.012;2023-08-30T04:06:33;2.03;;;0.95;;
5519;SDS011;2782;52.362;10.012;2023-08-30T04:07:35;3.20;;;1.20;;
5519;SDS011;2782;52.362;10.012;2023-08-30T04:08:36;3.50;;;1.40;;
5519;SDS011;2782;52.362;10.012;2023-08-30T04:09:37;1.73;;;0.90;;
5519;SDS011;2782;52.362;10.012;2023-08-30T04:10:39;1.90;;;0.97;;
5519;SDS011;2782;52.362;10.012;2023-08-30T04:11:41;1.25;;;0.82;;
5519;SDS011;2782;52.362;10.012;2023-08-30T04:12:42;4.03;;;0.83;;
5519;SDS011;2782;52.362;10.012;2023-08-30T04:13:44;3.17;;;1.17;;
5519;SDS011;2782;52.362;10.012;2023-08-30T04:14:44;1.63;;;1.07;;
5519;SDS011;2782;52.362;10.012;2023-08-30T04:15:47;1.92;;;0.88;;
5519;SDS011;2782;52.362;10.012;2023-08-30T04:16:48;3.35;;;1.02;;
5519;SDS011;2782;52.362;10.012;2023-08-30T04:17:51;2.35;;;1.15;;
5519;SDS011;2782;52.362;10.012;2023-08-30T04:18:52;1.85;;;1.08;;
5519;SDS011;2782;52.362;10.012;2023-08-30T04:19:54;3.20;;;1.30;;
5519;SDS011;2782;52.362;10.012;2023-08-30T04:20:56;1.87;;;1.10;;
5519;SDS011;2782;52.362;10.012;2023-08-30T04:21:59;2.80;;;1.25;;
5519;SDS011;2782;52.362;10.012;2023-08-30T04:22:59;1.07;;;0.67;;
5519;SDS011;2782;52.362;10.012;2023-08-30T04:24:02;2.22;;;1.27;;
5519;SDS011;2782;52.362;10.012;2023-08-30T04:25:04;1.98;;;1.10;;
5519;SDS011;2782;52.362;10.012;2023-08-30T04:26:07;3.60;;;1.17;;
5519;SDS011;2782;52.362;10.012;2023-08-30T04:27:08;2.20;;;1.20;;
5519;SDS011;2782;52.362;10.012;2023-08-30T04:28:10;1.30;;;1.00;;
5519;SDS011;2782;52.362;10.012;2023-08-30T04:29:10;2.77;;;1.13;;
5519;SDS011;2782;52.362;10.012;2023-08-30T04:30:12;1.88;;;1.00;;
5519;SDS011;2782;52.362;10.012;2023-08-30T04:31:13;1.52;;;0.70;;
5519;SDS011;2782;52.362;10.012;2023-08-30T04:32:15;2.13;;;1.00;;
5519;SDS011;2782;52.362;10.012;2023-08-30T04:33:17;1.20;;;0.80;;
5519;SDS011;2782;52.362;10.012;2023-08-30T04:34:18;7.85;;;1.40;;
5519;SDS011;2782;52.362;10.012;2023-08-30T04:35:19;1.00;;;0.57;;
5519;SDS011;2782;52.362;10.012;2023-08-30T04:36:21;2.40;;;1.15;;
5519;SDS011;2782;52.362;10.012;2023-08-30T04:37:21;4.93;;;1.20;;
5519;SDS011;2782;52.362;10.012;2023-08-30T04:38:23;7.75;;;1.30;;
5519;SDS011;2782;52.362;10.012;2023-08-30T04:39:24;2.30;;;1.10;;
5519;SDS011;2782;52.362;10.012;2023-08-30T04:40:25;5.32;;;1.90;;
5519;SDS011;2782;52.362;10.012;2023-08-30T04:41:26;9.10;;;1.80;;
5519;SDS011;2782;52.362;10.012;2023-08-30T04:42:27;4.93;;;0.90;;
5519;SDS011;2782;52.362;10.012;2023-08-30T04:43:29;2.88;;;1.23;;
5519;SDS011;2782;52.362;10.012;2023-08-30T04:44:29;5.90;;;1.60;;
5519;SDS011;2782;52.362;10.012;2023-08-30T04:45:33;2.58;;;0.90;;
5519;SDS011;2782;52.362;10.012;2023-08-30T04:46:34;3.08;;;1.10;;
5519;SDS011;2782;52.362;10.012;2023-08-30T04:47:35;3.63;;;1.17;;
5519;SDS011;2782;52.362;10.012;2023-08-30T04:48:38;2.63;;;1.20;;
5519;SDS011;2782;52.362;10.012;2023-08-30T04:49:39;3.83;;;1.20;;
5519;SDS011;2782;52.362;10.012;2023-08-30T04:50:40;3.92;;;1.40;;
5519;SDS011;2782;52.362;10.012;2023-08-30T04:51:41;3.53;;;1.20;;
5519;SDS011;2782;52.362;10.012;2023-08-30T04:52:43;20.00;;;1.58;;
5519;SDS011;2782;52.362;10.012;2023-08-30T04:53:44;5.07;;;1.90;;
5519;SDS011;2782;52.362;10.012;2023-08-30T04:54:45;3.65;;;1.60;;
5519;SDS011;2782;52.362;10.012;2023-08-30T04:55:46;6.77;;;1.83;;
5519;SDS011;2782;52.362;10.012;2023-08-30T04:56:48;4.28;;;1.65;;
5519;SDS011;2782;52.362;10.012;2023-08-30T04:57:49;4.80;;;1.15;;
5519;SDS011;2782;52.362;10.012;2023-08-30T04:58:50;4.80;;;1.80;;
5519;SDS011;2782;52.362;10.012;2023-08-30T04:59:51;5.67;;;1.80;;
5519;SDS011;2782;52.362;10.012;2023-08-30T05:00:52;4.27;;;1.80;;
5519;SDS011;2782;52.362;10.012;2023-08-30T05:01:57;7.72;;;1.60;;
5519;SDS011;2782;52.362;10.012;2023-08-30T05:02:58;6.80;;;1.80;;
5519;SDS011;2782;52.362;10.012;2023-08-30T05:04:00;3.20;;;1.98;;
5519;SDS011;2782;52.362;10.012;2023-08-30T05:05:01;6.88;;;1.25;;
5519;SDS011;2782;52.362;10.012;2023-08-30T05:06:03;3.88;;;1.20;;
5519;SDS011;2782;52.362;10.012;2023-08-30T05:07:04;8.40;;;2.07;;
5519;SDS011;2782;52.362;10.012;2023-08-30T05:08:06;2.80;;;1.63;;
5519;SDS011;2782;52.362;10.012;2023-08-30T05:09:06;3.20;;;1.57;;
5519;SDS011;2782;52.362;10.012;2023-08-30T05:10:08;3.55;;;1.48;;
5519;SDS011;2782;52.362;10.012;2023-08-30T05:11:09;4.22;;;1.35;;
5519;SDS011;2782;52.362;10.012;2023-08-30T05:12:11;3.65;;;1.80;;
5519;SDS011;2782;52.362;10.012;2023-08-30T05:13:12;8.97;;;1.50;;
5519;SDS011;2782;52.362;10.012;2023-08-30T05:14:15;4.18;;;1.50;;
5519;SDS011;2782;52.362;10.012;2023-08-30T05:15:16;7.80;;;1.60;;
5519;SDS011;2782;52.362;10.012;2023-08-30T05:16:17;3.70;;;1.20;;
5519;SDS011;2782;52.362;10.012;2023-08-30T05:17:18;6.63;;;1.10;;
5519;SDS011;2782;52.362;10.012;2023-08-30T05:18:20;8.35;;;1.65;;
5519;SDS011;2782;52.362;10.012;2023-08-30T05:19:22;2.43;;;1.20;;
5519;SDS011;2782;52.362;10.012;2023-08-30T05:20:23;4.18;;;1.50;;
5519;SDS011;2782;52.362;10.012;2023-08-30T05:21:24;11.93;;;1.50;;
5519;SDS011;2782;52.362;10.012;2023-08-30T05:22:26;7.82;;;1.85;;
5519;SDS011;2782;52.362;10.012;2023-08-30T05:23:26;2.47;;;1.30;;
5519;SDS011;2782;52.362;10.012;2023-08-30T05:24:27;2.70;;;1.50;;
5519;SDS011;2782;52.362;10.012;2023-08-30T05:25:29;2.35;;;1.20;;
5519;SDS011;2782;52.362;10.012;2023-08-30T05:26:29;4.67;;;1.57;;
5519;SDS011;2782;52.362;10.012;2023-08-30T05:27:31;5.60;;;1.83;;
5519;SDS011;2782;52.362;10.012;2023-08-30T05:28:32;7.70;;;1.80;;
5519;SDS011;2782;52.362;10.012;2023-08-30T05:29:33;14.27;;;3.00;;
5519;SDS011;2782;52.362;10.012;2023-08-30T05:30:34;9.17;;;1.73;;
5519;SDS011;2782;52.362;10.012;2023-08-30T05:31:36;11.75;;;2.05;;
5519;SDS011;2782;52.362;10.012;2023-08-30T05:32:36;11.63;;;1.97;;
5519;SDS011;2782;52.362;10.012;2023-08-30T05:33:37;7.20;;;2.30;;
5519;SDS011;2782;52.362;10.012;2023-08-30T05:34:40;5.82;;;1.50;;
5519;SDS011;2782;52.362;10.012;2023-08-30T05:35:41;10.02;;;2.10;;
5519;SDS011;2782;52.362;10.012;2023-08-30T05:36:42;5.25;;;2.17;;
5519;SDS011;2782;52.362;10.012;2023-08-30T05:37:43;8.53;;;2.43;;
5519;SDS011;2782;52.362;10.012;2023-08-30T05:38:45;11.15;;;2.60;;
5519;SDS011;2782;52.362;10.012;2023-08-30T05:39:46;13.93;;;2.47;;
5519;SDS011;2782;52.362;10.012;2023-08-30T05:40:48;10.18;;;2.10;;
5519;SDS011;2782;52.362;10.012;2023-08-30T05:41:49;15.20;;;2.20;;
5519;SDS011;2782;52.362;10.012;2023-08-30T05:42:50;10.60;;;2.40;;
5519;SDS011;2782;52.362;10.012;2023-08-30T05:43:51;8.33;;;2.97;;
5519;SDS011;2782;52.362;10.012;2023-08-30T05:44:53;5.00;;;2.20;;
5519;SDS011;2782;52.362;10.012;2023-08-30T05:45:54;2.40;;;2.13;;
5519;SDS011;2782;52.362;10.012;2023-08-30T05:47:01;3.40;;;2.20;;
5519;SDS011;2782;52.362;10.012;2023-08-30T05:48:02;4.10;;;2.77;;
5519;SDS011;2782;52.362;10.012;2023-08-30T05:49:04;8.32;;;2.60;;
5519;SDS011;2782;52.362;10.012;2023-08-30T05:50:06;4.03;;;2.50;;
5519;SDS011;2782;52.362;10.012;2023-08-30T05:51:09;3.95;;;2.72;;
5519;SDS011;2782;52.362;10.012;2023-08-30T05:52:09;7.77;;;3.10;;
5519;SDS011;2782;52.362;10.012;2023-08-30T05:53:11;2.60;;;2.40;;
5519;SDS011;2782;52.362;10.012;2023-08-30T05:54:12;8.33;;;3.40;;
5519;SDS011;2782;52.362;10.012;2023-08-30T05:55:13;9.13;;;2.38;;
5519;SDS011;2782;52.362;10.012;2023-08-30T05:56:14;3.03;;;2.70;;
5519;SDS011;2782;52.362;10.012;2023-08-30T05:57:17;8.95;;;3.05;;
5519;SDS011;2782;52.362;10.012;2023-08-30T05:58:18;6.97;;;2.70;;
5519;SDS011;2782;52.362;10.012;2023-08-30T05:59:19;4.50;;;2.63;;
5519;SDS011;2782;52.362;10.012;2023-08-30T06:00:20;8.13;;;2.93;;
5519;SDS011;2782;52.362;10.012;2023-08-30T06:01:22;8.15;;;2.78;;
5519;SDS011;2782;52.362;10.012;2023-08-30T06:02:22;5.17;;;2.60;;
5519;SDS011;2782;52.362;10.012;2023-08-30T06:03:24;7.38;;;2.80;;
5519;SDS011;2782;52.362;10.012;2023-08-30T06:04:25;2.60;;;2.20;;
5519;SDS011;2782;52.362;10.012;2023-08-30T06:05:28;5.63;;;2.70;;
5519;SDS011;2782;52.362;10.012;2023-08-30T06:07:30;6.38;;;2.75;;
5519;SDS011;2782;52.362;10.012;2023-08-30T06:08:31;3.80;;;2.53;;
5519;SDS011;2782;52.362;10.012;2023-08-30T06:09:32;4.57;;;3.10;;
5519;SDS011;2782;52.362;10.012;2023-08-30T06:10:33;4.33;;;2.70;;
5519;SDS011;2782;52.362;10.012;2023-08-30T06:11:35;8.18;;;3.40;;
5519;SDS011;2782;52.362;10.012;2023-08-30T06:12:35;3.60;;;3.10;;
5519;SDS011;2782;52.362;10.012;2023-08-30T06:13:37;9.82;;;3.28;;
5519;SDS011;2782;52.362;10.012;2023-08-30T06:14:38;8.13;;;3.37;;
5519;SDS011;2782;52.362;10.012;2023-08-30T06:15:39;9.77;;;3.78;;
5519;SDS011;2782;52.362;10.012;2023-08-30T06:16:40;4.17;;;3.03;;
5519;SDS011;2782;52.362;10.012;2023-08-30T06:17:44;7.22;;;2.42;;
5519;SDS011;2782;52.362;10.012;2023-08-30T06:18:46;2.80;;;2.20;;
5519;SDS011;2782;52.362;10.012;2023-08-30T06:19:48;9.00;;;2.92;;